sensor_id;sensor_type;location;lat;lon;timestamp;pressure;altitude;pressure_sealevel;temperature;humidity
44140;BME280;29803;51.048;4.686;2023-01-29T00:01:06;103086.66;;;-4.13;100.00
44140;BME280;29803;51.048;4.686;2023-01-29T00:03:37;103082.38;;;-4.19;100.00
44140;BME280;29803;51.048;4.686;2023-01-29T00:06:08;103077.19;;;-4.27;100.00
44140;BME280;29803;51.048;4.686;2023-01-29T00:08:38;103086.00;;;-4.32;100.00
44140;BME280;29803;51.048;4.686;2023-01-29T00:11:09;103082.53;;;-4.37;100.00
44140;BME280;29803;51.048;4.686;2023-01-29T00:13:40;103076.50;;;-4.43;100.00
44140;BME280;29803;51.048;4.686;2023-01-29T00:16:10;103081.78;;;-4.47;100.00
44140;BME280;29803;51.048;4.686;2023-01-29T00:18:41;103078.31;;;-4.49;100.00
44140;BME280;29803;51.048;4.686;2023-01-29T00:21:13;103075.72;;;-4.54;100.00
44140;BME280;29803;51.048;4.686;2023-01-29T00:23:45;103069.66;;;-4.56;100.00
44140;BME280;29803;51.048;4.686;2023-01-29T00:26:16;103065.28;;;-4.58;100.00
44140;BME280;29803;51.048;4.686;2023-01-29T00:28:47;103064.44;;;-4.59;100.00
44140;BME280;29803;51.048;4.686;2023-01-29T00:31:20;103063.59;;;-4.61;100.00
44140;BME280;29803;51.048;4.686;2023-01-29T00:33:51;103060.09;;;-4.61;100.00
44140;BME280;29803;51.048;4.686;2023-01-29T00:36:22;103062.72;;;-4.63;100.00
44140;BME280;29803;51.048;4.686;2023-01-29T00:38:57;103065.34;;;-4.61;100.00
44140;BME280;29803;51.048;4.686;2023-01-29T00:41:31;103057.44;;;-4.58;100.00
44140;BME280;29803;51.048;4.686;2023-01-29T00:44:20;103060.06;;;-4.57;100.00
44140;BME280;29803;51.048;4.686;2023-01-29T00:47:09;103059.19;;;-4.59;100.00
44140;BME280;29803;51.048;4.686;2023-01-29T00:50:00;103044.38;;;-4.60;100.00
44140;BME280;29803;51.048;4.686;2023-01-29T00:52:31;103053.97;;;-4.60;100.00
44140;BME280;29803;51.048;4.686;2023-01-29T00:55:04;103045.25;;;-4.61;100.00
44140;BME280;29803;51.048;4.686;2023-01-29T00:57:35;103044.38;;;-4.63;100.00
44140;BME280;29803;51.048;4.686;2023-01-29T01:00:09;103043.56;;;-4.66;100.00
44140;BME280;29803;51.048;4.686;2023-01-29T01:02:40;103027.84;;;-4.68;100.00
44140;BME280;29803;51.048;4.686;2023-01-29T01:05:29;103030.50;;;-4.70;100.00
44140;BME280;29803;51.048;4.686;2023-01-29T01:08:00;103027.88;;;-4.73;100.00
44140;BME280;29803;51.048;4.686;2023-01-29T01:10:31;103024.41;;;-4.73;100.00
44140;BME280;29803;51.048;4.686;2023-01-29T01:13:04;103029.69;;;-4.76;100.00
44140;BME280;29803;51.048;4.686;2023-01-29T01:15:37;103024.44;;;-4.78;100.00
44140;BME280;29803;51.048;4.686;2023-01-29T01:18:08;103020.97;;;-4.77;100.00
44140;BME280;29803;51.048;4.686;2023-01-29T01:20:39;103012.22;;;-4.77;100.00
44140;BME280;29803;51.048;4.686;2023-01-29T01:23:09;103012.28;;;-4.83;100.00
44140;BME280;29803;51.048;4.686;2023-01-29T01:25:40;103003.66;;;-4.93;100.00
44140;BME280;29803;51.048;4.686;2023-01-29T01:28:10;103007.19;;;-4.96;100.00
44140;BME280;29803;51.048;4.686;2023-01-29T01:30:41;103009.66;;;-4.83;100.00
44140;BME280;29803;51.048;4.686;2023-01-29T01:33:11;103011.38;;;-4.76;100.00
44140;BME280;29803;51.048;4.686;2023-01-29T01:35:42;103022.69;;;-4.76;100.00
44140;BME280;29803;51.048;4.686;2023-01-29T01:38:12;103015.72;;;-4.77;100.00
44140;BME280;29803;51.048;4.686;2023-01-29T01:40:44;103017.47;;;-4.77;100.00
44140;BME280;29803;51.048;4.686;2023-01-29T01:43:15;103019.22;;;-4.76;100.00
44140;BME280;29803;51.048;4.686;2023-01-29T01:45:45;103017.47;;;-4.76;100.00
44140;BME280;29803;51.048;4.686;2023-01-29T01:48:20;103023.56;;;-4.75;100.00
44140;BME280;29803;51.048;4.686;2023-01-29T01:50:57;103024.47;;;-4.76;100.00
44140;BME280;29803;51.048;4.686;2023-01-29T01:53:33;103026.06;;;-4.63;100.00
44140;BME280;29803;51.048;4.686;2023-01-29T01:56:15;103031.16;;;-4.52;100.00
44140;BME280;29803;51.048;4.686;2023-01-29T01:58:54;103034.63;;;-4.46;100.00
44140;BME280;29803;51.048;4.686;2023-01-29T02:01:26;103036.34;;;-4.45;100.00
44140;BME280;29803;51.048;4.686;2023-01-29T02:04:07;103037.25;;;-4.49;100.00
44140;BME280;29803;51.048;4.686;2023-01-29T02:07:06;103036.41;;;-4.52;100.00
44140;BME280;29803;51.048;4.686;2023-01-29T02:10:10;103033.88;;;-4.58;100.00
44140;BME280;29803;51.048;4.686;2023-01-29T02:12:42;103041.81;;;-4.68;100.00
44140;BME280;29803;51.048;4.686;2023-01-29T02:15:13;103033.19;;;-4.79;100.00
44140;BME280;29803;51.048;4.686;2023-01-29T02:17:43;103039.38;;;-4.86;100.00
44140;BME280;29803;51.048;4.686;2023-01-29T02:20:22;103038.56;;;-4.91;100.00
44140;BME280;29803;51.048;4.686;2023-01-29T02:34:00;103049.06;;;-4.97;100.00
44140;BME280;29803;51.048;4.686;2023-01-29T02:36:49;103057.81;;;-4.97;100.00
44140;BME280;29803;51.048;4.686;2023-01-29T02:42:33;103054.31;;;-4.99;100.00
44140;BME280;29803;51.048;4.686;2023-01-29T02:48:40;103056.13;;;-5.05;100.00
44140;BME280;29803;51.048;4.686;2023-01-29T02:51:17;103051.78;;;-5.08;100.00
44140;BME280;29803;51.048;4.686;2023-01-29T02:54:03;103043.97;;;-5.11;100.00
44140;BME280;29803;51.048;4.686;2023-01-29T02:59:24;103057.06;;;-5.11;100.00
44140;BME280;29803;51.048;4.686;2023-01-29T03:02:07;103047.41;;;-5.07;100.00
44140;BME280;29803;51.048;4.686;2023-01-29T03:04:42;103044.78;;;-5.04;100.00
44140;BME280;29803;51.048;4.686;2023-01-29T03:07:24;103037.81;;;-5.05;100.00
44140;BME280;29803;51.048;4.686;2023-01-29T03:10:34;103039.56;;;-5.06;100.00
44140;BME280;29803;51.048;4.686;2023-01-29T03:13:23;103037.81;;;-5.05;100.00
44140;BME280;29803;51.048;4.686;2023-01-29T03:16:03;103036.91;;;-5.01;100.00
44140;BME280;29803;51.048;4.686;2023-01-29T03:18:40;103041.22;;;-4.99;100.00
44140;BME280;29803;51.048;4.686;2023-01-29T03:21:30;103046.44;;;-4.94;100.00
44140;BME280;29803;51.048;4.686;2023-01-29T03:24:46;103050.75;;;-4.88;100.00
44140;BME280;29803;51.048;4.686;2023-01-29T03:27:47;103053.34;;;-4.85;100.00
44140;BME280;29803;51.048;4.686;2023-01-29T03:30:42;103055.88;;;-4.78;100.00
44140;BME280;29803;51.048;4.686;2023-01-29T03:33:39;103054.06;;;-4.70;100.00
44140;BME280;29803;51.048;4.686;2023-01-29T03:36:19;103052.28;;;-4.64;100.00
44140;BME280;29803;51.048;4.686;2023-01-29T03:38:50;103046.13;;;-4.60;100.00
44140;BME280;29803;51.048;4.686;2023-01-29T03:41:27;103043.44;;;-4.57;100.00
44140;BME280;29803;51.048;4.686;2023-01-29T03:49:41;103041.47;;;-4.37;100.00
44140;BME280;29803;51.048;4.686;2023-01-29T03:52:42;103038.75;;;-4.28;100.00
44140;BME280;29803;51.048;4.686;2023-01-29T03:55:40;103030.88;;;-4.25;100.00
44140;BME280;29803;51.048;4.686;2023-01-29T04:01:16;103020.28;;;-4.17;100.00
44140;BME280;29803;51.048;4.686;2023-01-29T04:03:51;103018.59;;;-4.20;100.00
44140;BME280;29803;51.048;4.686;2023-01-29T04:06:26;103028.22;;;-4.20;100.00
44140;BME280;29803;51.048;4.686;2023-01-29T04:09:06;103029.06;;;-4.20;100.00
44140;BME280;29803;51.048;4.686;2023-01-29T04:11:44;103017.66;;;-4.15;100.00
44140;BME280;29803;51.048;4.686;2023-01-29T04:14:17;103014.13;;;-4.13;100.00
44140;BME280;29803;51.048;4.686;2023-01-29T04:16:52;103024.53;;;-4.07;100.00
44140;BME280;29803;51.048;4.686;2023-01-29T04:19:24;103033.22;;;-4.00;100.00
44140;BME280;29803;51.048;4.686;2023-01-29T04:22:35;103016.53;;;-3.95;100.00
44140;BME280;29803;51.048;4.686;2023-01-29T04:25:16;102997.25;;;-3.91;100.00
44140;BME280;29803;51.048;4.686;2023-01-29T04:28:04;102991.91;;;-3.84;100.00
44140;BME280;29803;51.048;4.686;2023-01-29T04:30:44;102997.03;;;-3.77;100.00
44140;BME280;29803;51.048;4.686;2023-01-29T04:36:25;102991.66;;;-3.66;100.00
44140;BME280;29803;51.048;4.686;2023-01-29T04:42:04;102985.38;;;-3.57;100.00
44140;BME280;29803;51.048;4.686;2023-01-29T04:44:46;102989.69;;;-3.53;100.00
44140;BME280;29803;51.048;4.686;2023-01-29T04:47:40;102989.56;;;-3.44;100.00
44140;BME280;29803;51.048;4.686;2023-01-29T04:50:25;102986.78;;;-3.35;100.00
44140;BME280;29803;51.048;4.686;2023-01-29T04:53:17;102980.44;;;-3.22;100.00
44140;BME280;29803;51.048;4.686;2023-01-29T04:58:42;102976.59;;;-3.02;100.00
44140;BME280;29803;51.048;4.686;2023-01-29T05:01:18;102974.72;;;-2.94;100.00
44140;BME280;29803;51.048;4.686;2023-01-29T05:03:50;102964.13;;;-2.90;100.00
44140;BME280;29803;51.048;4.686;2023-01-29T05:06:23;102959.63;;;-2.83;100.00
44140;BME280;29803;51.048;4.686;2023-01-29T05:08:55;102963.06;;;-2.79;100.00
44140;BME280;29803;51.048;4.686;2023-01-29T05:11:29;102968.22;;;-2.76;100.00
44140;BME280;29803;51.048;4.686;2023-01-29T05:14:01;102976.03;;;-2.72;100.00
44140;BME280;29803;51.048;4.686;2023-01-29T05:16:37;102959.28;;;-2.66;100.00
44140;BME280;29803;51.048;4.686;2023-01-29T05:19:13;102957.47;;;-2.63;100.00
44140;BME280;29803;51.048;4.686;2023-01-29T05:21:46;102959.19;;;-2.60;100.00
44140;BME280;29803;51.048;4.686;2023-01-29T05:24:23;102946.91;;;-2.59;100.00
44140;BME280;29803;51.048;4.686;2023-01-29T05:26:54;102939.06;;;-2.61;100.00
44140;BME280;29803;51.048;4.686;2023-01-29T05:29:44;102937.25;;;-2.59;100.00
44140;BME280;29803;51.048;4.686;2023-01-29T05:32:15;102942.47;;;-2.57;100.00
44140;BME280;29803;51.048;4.686;2023-01-29T05:34:46;102947.69;;;-2.54;100.00
44140;BME280;29803;51.048;4.686;2023-01-29T05:37:16;102948.50;;;-2.51;100.00
44140;BME280;29803;51.048;4.686;2023-01-29T05:39:47;102943.09;;;-2.45;100.00
44140;BME280;29803;51.048;4.686;2023-01-29T05:42:18;102958.78;;;-2.40;100.00
44140;BME280;29803;51.048;4.686;2023-01-29T05:44:48;102957.78;;;-2.35;100.00
44140;BME280;29803;51.048;4.686;2023-01-29T05:47:19;102953.34;;;-2.32;100.00
44140;BME280;29803;51.048;4.686;2023-01-29T05:49:50;102957.72;;;-2.31;100.00
44140;BME280;29803;51.048;4.686;2023-01-29T05:52:21;102957.69;;;-2.30;100.00
44140;BME280;29803;51.048;4.686;2023-01-29T05:54:51;102958.56;;;-2.29;100.00
44140;BME280;29803;51.048;4.686;2023-01-29T05:57:22;102945.38;;;-2.28;100.00
44140;BME280;29803;51.048;4.686;2023-01-29T05:59:52;102947.09;;;-2.25;100.00
44140;BME280;29803;51.048;4.686;2023-01-29T06:02:23;102951.34;;;-2.21;100.00
44140;BME280;29803;51.048;4.686;2023-01-29T06:04:53;102947.84;;;-2.20;100.00
44140;BME280;29803;51.048;4.686;2023-01-29T06:07:24;102945.13;;;-2.16;100.00
44140;BME280;29803;51.048;4.686;2023-01-29T06:09:54;102949.53;;;-2.18;100.00
44140;BME280;29803;51.048;4.686;2023-01-29T06:12:25;102949.50;;;-2.16;100.00
44140;BME280;29803;51.048;4.686;2023-01-29T06:14:56;102951.09;;;-2.09;100.00
44140;BME280;29803;51.048;4.686;2023-01-29T06:17:27;102955.50;;;-2.10;100.00
44140;BME280;29803;51.048;4.686;2023-01-29T06:19:57;102962.50;;;-2.09;100.00
44140;BME280;29803;51.048;4.686;2023-01-29T06:22:27;102968.56;;;-2.05;100.00
44140;BME280;29803;51.048;4.686;2023-01-29T06:24:58;102961.50;;;-2.03;100.00
44140;BME280;29803;51.048;4.686;2023-01-29T06:27:28;102961.44;;;-2.00;100.00
44140;BME280;29803;51.048;4.686;2023-01-29T06:29:59;102959.59;;;-1.96;100.00
44140;BME280;29803;51.048;4.686;2023-01-29T06:32:29;102959.56;;;-1.95;100.00
44140;BME280;29803;51.048;4.686;2023-01-29T06:35:00;102963.13;;;-1.97;100.00
44140;BME280;29803;51.048;4.686;2023-01-29T06:37:30;102956.16;;;-2.00;100.00
44140;BME280;29803;51.048;4.686;2023-01-29T06:40:02;102957.03;;;-1.99;100.00
44140;BME280;29803;51.048;4.686;2023-01-29T06:42:35;102957.03;;;-1.99;100.00
44140;BME280;29803;51.048;4.686;2023-01-29T06:45:06;102955.22;;;-1.97;100.00
44140;BME280;29803;51.048;4.686;2023-01-29T06:47:37;102956.03;;;-1.94;100.00
44140;BME280;29803;51.048;4.686;2023-01-29T06:50:08;102953.34;;;-1.91;100.00
44140;BME280;29803;51.048;4.686;2023-01-29T06:52:39;102956.78;;;-1.89;100.00
44140;BME280;29803;51.048;4.686;2023-01-29T06:55:09;102960.19;;;-1.84;100.00
44140;BME280;29803;51.048;4.686;2023-01-29T06:57:39;102961.91;;;-1.83;100.00
44140;BME280;29803;51.048;4.686;2023-01-29T07:00:10;102962.75;;;-1.80;100.00
44140;BME280;29803;51.048;4.686;2023-01-29T07:02:41;102960.88;;;-1.75;100.00
44140;BME280;29803;51.048;4.686;2023-01-29T07:05:12;102964.34;;;-1.73;100.00
44140;BME280;29803;51.048;4.686;2023-01-29T07:07:42;102961.69;;;-1.73;100.00
44140;BME280;29803;51.048;4.686;2023-01-29T07:10:13;102941.50;;;-1.73;100.00
44140;BME280;29803;51.048;4.686;2023-01-29T07:12:43;102941.47;;;-1.71;100.00
44140;BME280;29803;51.048;4.686;2023-01-29T07:15:14;102939.75;;;-1.72;100.00
44140;BME280;29803;51.048;4.686;2023-01-29T07:18:01;102937.97;;;-1.70;100.00
44140;BME280;29803;51.048;4.686;2023-01-29T07:20:33;102928.28;;;-1.70;100.00
44140;BME280;29803;51.048;4.686;2023-01-29T07:23:03;102924.81;;;-1.72;100.00
44140;BME280;29803;51.048;4.686;2023-01-29T07:25:34;102923.84;;;-1.68;100.00
44140;BME280;29803;51.048;4.686;2023-01-29T07:28:06;102929.94;;;-1.66;100.00
44140;BME280;29803;51.048;4.686;2023-01-29T07:30:37;102930.72;;;-1.62;100.00
44140;BME280;29803;51.048;4.686;2023-01-29T07:33:09;102921.00;;;-1.59;100.00
44140;BME280;29803;51.048;4.686;2023-01-29T07:35:41;102931.47;;;-1.55;100.00
44140;BME280;29803;51.048;4.686;2023-01-29T07:38:12;102922.56;;;-1.51;100.00
44140;BME280;29803;51.048;4.686;2023-01-29T07:40:42;102929.44;;;-1.46;100.00
44140;BME280;29803;51.048;4.686;2023-01-29T07:43:13;102931.09;;;-1.40;100.00
44140;BME280;29803;51.048;4.686;2023-01-29T07:45:43;102930.06;;;-1.35;100.00
44140;BME280;29803;51.048;4.686;2023-01-29T07:48:14;102930.81;;;-1.29;100.00
44140;BME280;29803;51.048;4.686;2023-01-29T07:50:44;102928.00;;;-1.23;100.00
44140;BME280;29803;51.048;4.686;2023-01-29T07:53:15;102925.22;;;-1.17;100.00
44140;BME280;29803;51.048;4.686;2023-01-29T07:55:45;102912.78;;;-1.12;100.00
44140;BME280;29803;51.048;4.686;2023-01-29T07:58:16;102921.47;;;-1.09;100.00
44140;BME280;29803;51.048;4.686;2023-01-29T08:00:46;102928.31;;;-1.01;100.00
44140;BME280;29803;51.048;4.686;2023-01-29T08:03:18;102927.38;;;-0.99;100.00
44140;BME280;29803;51.048;4.686;2023-01-29T08:05:49;102919.34;;;-0.94;100.00
44140;BME280;29803;51.048;4.686;2023-01-29T08:08:19;102909.72;;;-0.97;100.00
44140;BME280;29803;51.048;4.686;2023-01-29T08:10:50;102931.53;;;-0.90;100.00
44140;BME280;29803;51.048;4.686;2023-01-29T08:13:20;102934.94;;;-0.87;100.00
44140;BME280;29803;51.048;4.686;2023-01-29T08:15:51;102941.00;;;-0.83;100.00
44140;BME280;29803;51.048;4.686;2023-01-29T08:18:21;102933.88;;;-0.81;100.00
44140;BME280;29803;51.048;4.686;2023-01-29T08:20:51;102932.97;;;-0.79;100.00
44140;BME280;29803;51.048;4.686;2023-01-29T08:23:22;102931.13;;;-0.76;100.00
44140;BME280;29803;51.048;4.686;2023-01-29T08:25:52;102930.22;;;-0.75;100.00
44140;BME280;29803;51.048;4.686;2023-01-29T08:28:23;102926.69;;;-0.74;100.00
44140;BME280;29803;51.048;4.686;2023-01-29T08:30:54;102921.44;;;-0.74;100.00
44140;BME280;29803;51.048;4.686;2023-01-29T08:33:24;102911.78;;;-0.75;100.00
44140;BME280;29803;51.048;4.686;2023-01-29T08:35:57;102905.50;;;-0.70;100.00
44140;BME280;29803;51.048;4.686;2023-01-29T08:38:28;102903.66;;;-0.68;100.00
44140;BME280;29803;51.048;4.686;2023-01-29T08:40:58;102901.81;;;-0.64;100.00
44140;BME280;29803;51.048;4.686;2023-01-29T08:43:29;102902.72;;;-0.65;100.00
44140;BME280;29803;51.048;4.686;2023-01-29T08:45:59;102905.25;;;-0.62;100.00
44140;BME280;29803;51.048;4.686;2023-01-29T08:48:30;102908.69;;;-0.59;100.00
44140;BME280;29803;51.048;4.686;2023-01-29T08:51:01;102906.81;;;-0.55;100.00
44140;BME280;29803;51.048;4.686;2023-01-29T08:53:32;102907.56;;;-0.50;100.00
44140;BME280;29803;51.048;4.686;2023-01-29T08:56:02;102902.16;;;-0.47;100.00
44140;BME280;29803;51.048;4.686;2023-01-29T08:58:33;102906.44;;;-0.43;100.00
44140;BME280;29803;51.048;4.686;2023-01-29T09:01:12;102895.81;;;-0.40;100.00
44140;BME280;29803;51.048;4.686;2023-01-29T09:03:42;102901.84;;;-0.36;100.00
44140;BME280;29803;51.048;4.686;2023-01-29T09:06:13;102913.19;;;-0.33;100.00
44140;BME280;29803;51.048;4.686;2023-01-29T09:08:44;102906.06;;;-0.31;100.00
44140;BME280;29803;51.048;4.686;2023-01-29T09:11:15;102915.75;;;-0.30;100.00
44140;BME280;29803;51.048;4.686;2023-01-29T09:13:45;102919.19;;;-0.28;100.00
44140;BME280;29803;51.048;4.686;2023-01-29T09:16:15;102921.75;;;-0.24;100.00
44140;BME280;29803;51.048;4.686;2023-01-29T09:18:46;102915.50;;;-0.22;100.00
44140;BME280;29803;51.048;4.686;2023-01-29T09:21:16;102914.72;;;-0.26;100.00
44140;BME280;29803;51.048;4.686;2023-01-29T09:23:47;102907.63;;;-0.23;100.00
44140;BME280;29803;51.048;4.686;2023-01-29T09:26:17;102907.63;;;-0.23;100.00
44140;BME280;29803;51.048;4.686;2023-01-29T09:28:48;102907.63;;;-0.23;100.00
44140;BME280;29803;51.048;4.686;2023-01-29T09:31:18;102904.94;;;-0.22;100.00
44140;BME280;29803;51.048;4.686;2023-01-29T09:33:49;102897.09;;;-0.23;100.00
44140;BME280;29803;51.048;4.686;2023-01-29T09:36:19;102901.50;;;-0.24;100.00
44140;BME280;29803;51.048;4.686;2023-01-29T09:38:50;102903.16;;;-0.21;100.00
44140;BME280;29803;51.048;4.686;2023-01-29T09:42:13;102897.75;;;-0.17;100.00
44140;BME280;29803;51.048;4.686;2023-01-29T09:47:40;102902.81;;;-0.09;100.00
44140;BME280;29803;51.048;4.686;2023-01-29T09:50:23;102908.88;;;-0.07;100.00
44140;BME280;29803;51.048;4.686;2023-01-29T09:53:03;102907.03;;;-0.04;100.00
44140;BME280;29803;51.048;4.686;2023-01-29T09:55:47;102913.94;;;0.01;100.00
44140;BME280;29803;51.048;4.686;2023-01-29T09:58:28;102914.66;;;0.06;100.00
44140;BME280;29803;51.048;4.686;2023-01-29T10:15:56;102899.78;;;0.30;100.00
44140;BME280;29803;51.048;4.686;2023-01-29T10:19:00;102891.78;;;0.33;100.00
44140;BME280;29803;51.048;4.686;2023-01-29T10:24:29;102879.34;;;0.36;100.00
44140;BME280;29803;51.048;4.686;2023-01-29T10:27:13;102878.28;;;0.42;100.00
44140;BME280;29803;51.048;4.686;2023-01-29T10:29:47;102881.63;;;0.47;100.00
44140;BME280;29803;51.048;4.686;2023-01-29T10:32:20;102876.13;;;0.53;100.00
44140;BME280;29803;51.048;4.686;2023-01-29T10:34:55;102881.34;;;0.55;100.00
44140;BME280;29803;51.048;4.686;2023-01-29T10:37:37;102885.56;;;0.60;100.00
44140;BME280;29803;51.048;4.686;2023-01-29T10:40:32;102878.31;;;0.67;100.00
44140;BME280;29803;51.048;4.686;2023-01-29T10:43:21;102879.97;;;0.69;100.00
44140;BME280;29803;51.048;4.686;2023-01-29T10:48:56;102878.75;;;0.80;100.00
44140;BME280;29803;51.048;4.686;2023-01-29T10:54:31;102873.13;;;0.89;100.00
44140;BME280;29803;51.048;4.686;2023-01-29T10:57:24;102868.53;;;0.94;100.00
44140;BME280;29803;51.048;4.686;2023-01-29T11:00:09;102855.22;;;0.97;100.00
44140;BME280;29803;51.048;4.686;2023-01-29T11:02:43;102857.81;;;0.98;100.00
44140;BME280;29803;51.048;4.686;2023-01-29T11:05:41;102855.06;;;1.01;100.00
44140;BME280;29803;51.048;4.686;2023-01-29T11:08:20;102850.31;;;1.11;100.00
44140;BME280;29803;51.048;4.686;2023-01-29T11:13:31;102840.94;;;1.26;100.00
44140;BME280;29803;51.048;4.686;2023-01-29T11:16:04;102832.78;;;1.32;100.00
44140;BME280;29803;51.048;4.686;2023-01-29T11:19:09;102818.63;;;1.33;100.00
44140;BME280;29803;51.048;4.686;2023-01-29T11:21:57;102822.75;;;1.40;100.00
44140;BME280;29803;51.048;4.686;2023-01-29T11:24:28;102804.47;;;1.34;100.00
44140;BME280;29803;51.048;4.686;2023-01-29T11:26:59;102803.63;;;1.34;100.00
44140;BME280;29803;51.048;4.686;2023-01-29T11:29:46;102798.59;;;1.49;100.00
44140;BME280;29803;51.048;4.686;2023-01-29T11:35:31;102789.00;;;1.47;100.00
44140;BME280;29803;51.048;4.686;2023-01-29T11:38:05;102774.50;;;1.57;100.00
44140;BME280;29803;51.048;4.686;2023-01-29T11:40:38;102770.00;;;1.59;100.00
44140;BME280;29803;51.048;4.686;2023-01-29T11:43:21;102762.44;;;1.72;100.00
44140;BME280;29803;51.048;4.686;2023-01-29T11:45:55;102749.88;;;1.77;100.00
44140;BME280;29803;51.048;4.686;2023-01-29T11:48:32;102749.81;;;1.78;100.00
44140;BME280;29803;51.048;4.686;2023-01-29T11:51:04;102743.59;;;1.79;100.00
44140;BME280;29803;51.048;4.686;2023-01-29T11:53:41;102739.03;;;1.83;100.00
44140;BME280;29803;51.048;4.686;2023-01-29T11:58:50;102747.19;;;1.99;100.00
44140;BME280;29803;51.048;4.686;2023-01-29T12:01:34;102738.59;;;2.14;100.00
44140;BME280;29803;51.048;4.686;2023-01-29T12:04:18;102738.41;;;2.19;100.00
44140;BME280;29803;51.048;4.686;2023-01-29T12:06:51;102739.72;;;2.29;100.00
44140;BME280;29803;51.048;4.686;2023-01-29T12:09:25;102725.75;;;2.25;100.00
44140;BME280;29803;51.048;4.686;2023-01-29T12:12:16;102728.84;;;2.35;100.00
44140;BME280;29803;51.048;4.686;2023-01-29T12:15:01;102718.22;;;2.37;100.00
44140;BME280;29803;51.048;4.686;2023-01-29T12:17:32;102714.06;;;2.50;100.00
44140;BME280;29803;51.048;4.686;2023-01-29T12:20:22;102711.03;;;2.59;100.00
44140;BME280;29803;51.048;4.686;2023-01-29T12:23:13;102706.81;;;2.74;100.00
44140;BME280;29803;51.048;4.686;2023-01-29T12:31:25;102686.69;;;2.89;100.00
44140;BME280;29803;51.048;4.686;2023-01-29T12:34:19;102672.78;;;3.02;100.00
44140;BME280;29803;51.048;4.686;2023-01-29T12:37:08;102661.69;;;2.94;100.00
44140;BME280;29803;51.048;4.686;2023-01-29T12:39:40;102661.53;;;2.97;100.00
44140;BME280;29803;51.048;4.686;2023-01-29T12:42:21;102644.78;;;2.97;100.00
44140;BME280;29803;51.048;4.686;2023-01-29T12:45:00;102644.69;;;2.98;100.00
44140;BME280;29803;51.048;4.686;2023-01-29T12:47:40;102648.31;;;3.15;100.00
44140;BME280;29803;51.048;4.686;2023-01-29T12:50:20;102640.16;;;3.19;100.00
44140;BME280;29803;51.048;4.686;2023-01-29T12:52:58;102629.03;;;3.11;100.00
44140;BME280;29803;51.048;4.686;2023-01-29T12:55:36;102633.13;;;3.18;100.00
44140;BME280;29803;51.048;4.686;2023-01-29T12:58:13;102626.13;;;3.17;100.00
44140;BME280;29803;51.048;4.686;2023-01-29T13:00:50;102622.28;;;3.23;100.00
44140;BME280;29803;51.048;4.686;2023-01-29T13:03:29;102627.16;;;3.32;100.00
44140;BME280;29803;51.048;4.686;2023-01-29T13:06:07;102618.47;;;3.28;100.00
44140;BME280;29803;51.048;4.686;2023-01-29T13:11:22;102612.53;;;3.41;100.00
44140;BME280;29803;51.048;4.686;2023-01-29T13:14:08;102607.25;;;3.41;100.00
44140;BME280;29803;51.048;4.686;2023-01-29T13:16:47;102598.44;;;3.40;100.00
44140;BME280;29803;51.048;4.686;2023-01-29T13:19:32;102591.31;;;3.41;100.00
44140;BME280;29803;51.048;4.686;2023-01-29T13:22:14;102593.06;;;3.42;100.00
44140;BME280;29803;51.048;4.686;2023-01-29T13:24:47;102599.16;;;3.44;100.00
44140;BME280;29803;51.048;4.686;2023-01-29T13:27:25;102596.34;;;3.47;100.00
44140;BME280;29803;51.048;4.686;2023-01-29T13:29:56;102598.50;;;3.38;100.00
44140;BME280;29803;51.048;4.686;2023-01-29T13:32:30;102586.81;;;3.43;100.00
44140;BME280;29803;51.048;4.686;2023-01-29T13:35:04;102582.38;;;3.43;100.00
44140;BME280;29803;51.048;4.686;2023-01-29T13:37:39;102580.16;;;3.34;100.00
44140;BME280;29803;51.048;4.686;2023-01-29T13:40:28;102575.94;;;3.30;100.00
44140;BME280;29803;51.048;4.686;2023-01-29T13:43:00;102564.00;;;3.21;100.00
44140;BME280;29803;51.048;4.686;2023-01-29T13:45:34;102568.44;;;3.21;100.00
44140;BME280;29803;51.048;4.686;2023-01-29T13:50:55;102556.84;;;3.23;100.00
44140;BME280;29803;51.048;4.686;2023-01-29T13:53:37;102557.84;;;3.21;100.00
44140;BME280;29803;51.048;4.686;2023-01-29T13:59:05;102556.59;;;3.10;100.00
44140;BME280;29803;51.048;4.686;2023-01-29T14:06:52;102546.28;;;3.04;100.00
44140;BME280;29803;51.048;4.686;2023-01-29T14:10:08;102541.84;;;3.05;100.00
44140;BME280;29803;51.048;4.686;2023-01-29T14:12:43;102542.06;;;3.00;100.00
44140;BME280;29803;51.048;4.686;2023-01-29T14:15:25;102542.88;;;3.02;100.00
44140;BME280;29803;51.048;4.686;2023-01-29T14:26:32;102528.97;;;2.97;100.00
44140;BME280;29803;51.048;4.686;2023-01-29T14:29:23;102534.28;;;2.97;100.00
44140;BME280;29803;51.048;4.686;2023-01-29T14:31:59;102532.09;;;3.05;100.00
44140;BME280;29803;51.048;4.686;2023-01-29T14:34:47;102535.84;;;3.01;100.00
44140;BME280;29803;51.048;4.686;2023-01-29T14:37:30;102531.31;;;3.03;100.00
44140;BME280;29803;51.048;4.686;2023-01-29T14:42:54;102527.63;;;3.06;100.00
44140;BME280;29803;51.048;4.686;2023-01-29T14:50:49;102536.31;;;3.09;100.00
44140;BME280;29803;51.048;4.686;2023-01-29T14:53:31;102526.56;;;3.10;100.00
44140;BME280;29803;51.048;4.686;2023-01-29T14:56:25;102529.84;;;3.15;100.00
44140;BME280;29803;51.048;4.686;2023-01-29T14:59:19;102519.94;;;3.19;100.00
44140;BME280;29803;51.048;4.686;2023-01-29T15:01:55;102516.56;;;3.15;100.00
44140;BME280;29803;51.048;4.686;2023-01-29T15:04:40;102512.97;;;3.16;100.00
44140;BME280;29803;51.048;4.686;2023-01-29T15:07:31;102515.63;;;3.16;100.00
44140;BME280;29803;51.048;4.686;2023-01-29T15:10:18;102520.03;;;3.17;100.00
44140;BME280;29803;51.048;4.686;2023-01-29T15:12:56;102511.97;;;3.19;100.00
44140;BME280;29803;51.048;4.686;2023-01-29T15:15:34;102514.78;;;3.16;100.00
44140;BME280;29803;51.048;4.686;2023-01-29T15:20:49;102510.19;;;3.19;100.00
44140;BME280;29803;51.048;4.686;2023-01-29T15:23:33;102508.25;;;3.23;100.00